Tiempo atmosférico en la estación meteorológica de Villaeles De Valdavia, Palencia (908 m.)



Fecha
DESCASC
Temp. máxima en grados centígrados (hora)
DESCASC
Temp. mínima en grados centígrados (hora)
DESCASC
Temp. media en grados centígrados
DESCASC
Racha de viento máxima en m/sg (hora)
DESCASC
Velocidad máxima media en intervalos de 10 minutos(hora)
DESCASC
Precipitaciones diarias en mm
DESCASC
Precipitaciones de 00:00 a 06:00 en mm
DESCASC
Precipitaciones de 06:00 a 12:00 en mm
DESCASC
Precipitaciones de 12:00 a 18:00 en mm
DESCASC
Precipitaciones de 18:00 a 24:00 en mm
DESCASC
06-07-2020 24.6 (16:00) 12.4 (23:59) 18.5 12.5 (20:30) 8.06 (20:30) 0 0 0 0 0
05-07-2020 30.8 (17:10) 10.8 (07:20) 20.8 10 (22:30) 6.39 (22:30) 0 0 0 0 0
04-07-2020 28.9 (18:50) 6.8 (05:10) 17.8 8.33 (20:00) 5 (19:50) 0 0 0 0 0
03-07-2020 24.6 (18:50) 7.7 (07:00) 16.2 8.89 (00:30) 5.56 (00:20) 0 0 0 0 0
02-07-2020 22.6 (16:30) 9.9 (00:00) 16.3 12.78 (18:30) 8.06 (18:30) 0 0 0 0 0
01-07-2020 29.6 (17:40) 13.3 (00:00) 21.5 12.78 (19:40) 6.67 (19:30) 0 0 0 0 0
30-06-2020 31.2 (17:40) 10.7 (00:00) 21 8.89 (18:50) 5.28 (19:00) 0 0 0 0 0
29-06-2020 26.8 (17:30) 12.1 (00:00) 19.4 8.33 (20:10) 5.28 (21:20) 0 0 0 0 0
28-06-2020 27.7 (18:20) 11.9 (00:00) 19.8 9.72 (16:00) 6.11 (23:20) 0 0 0 0 0
27-06-2020 24.7 (18:30) 8.3 (00:00) 16.5 10.83 (15:20) 6.67 (13:00) 0 0 0 0 0
26-06-2020 25.7 (17:50) 13.1 (00:00) 19.4 11.67 (15:40) 7.5 (15:10) 0 0 0 0 0
25-06-2020 26.4 (18:50) 14.2 (00:00) 20.3 14.44 (07:00) 6.67 (07:00) 5.4 1.6 1.6 1.6 0.6
24-06-2020 29.3 (14:20) 13.3 (00:00) 21.3 12.78 (15:40) 7.22 (15:40) 1 0 0 0.8 0.2
23-06-2020 32.1 (18:50) 9.1 (00:00) 20.6 15.56 (23:50) 6.67 (23:50) 0 0 0 0 0
22-06-2020 28.5 (18:40) 12.5 (00:00) 20.5 8.33 (20:20) 5.56 (20:20) 0 0 0 0 0
21-06-2020 28.2 (18:00) 9.2 (00:00) 18.7 11.39 (18:30) 6.94 (19:20) 0 0 0 0 0
20-06-2020 26.2 (18:50) 7 (00:00) 16.6 8.89 (15:40) 4.72 (18:10) 0 0 0 0 0
19-06-2020 24.1 (18:40) 6.3 (00:00) 15.2 8.89 (15:20) 4.72 (21:20) 0 0 0 0 0
18-06-2020 20.9 (16:50) 7.4 (07:00) 14.1 8.61 (19:50) 5.83 (19:50) 0 0 0 0 0
17-06-2020 19 (15:20) 8.2 (00:00) 13.6 9.17 (21:40) 5.28 (20:00) 0 0 0 0 0
16-06-2020 18.1 (17:40) 6.8 (00:00) 12.5 9.44 (14:50) 6.39 (12:10) 0.8 0 0 0 0.8
15-06-2020 19.3 (17:20) 5.2 (00:00) 12.2 10.28 (13:40) 5.83 (16:50) 0 0 0 0 0
14-06-2020 18.5 (18:10) 2.6 (00:00) 10.5 10.56 (14:50) 6.67 (14:50) 0 0 0 0 0
13-06-2020 16.3 (16:50) 6.9 (00:00) 11.6 11.94 (07:40) 8.06 (18:50) 0 0 0 0 0
12-06-2020 14.2 (18:40) 6.6 (00:00) 10.4 16.67 (03:40) 10.28 (05:20) 1.6 0 0 1.4 0.2
11-06-2020 18.7 (14:40) 7 (00:00) 12.9 18.33 (18:40) 11.39 (20:00) 0 0 0 0 0
10-06-2020 18.6 (16:20) 3.4 (00:00) 11 8.33 (00:10) 5 (00:10) 0 0 0 0 0

Gráficas

Temp. máximas Temp. mínimas Temp. medias Precipitaciones Rachas de viento máximas Velocidades máximas media en intervalos de 10 minutos

Datos horarios

Fecha y hora oficial Temperatura (ºC) Velocidad del viento (km/h) Dirección del viento Racha (km/h) Dirección de racha Precipitación (mm) Presión (hPa) Tendencia (hPa) Humedad (%)
2020-07-09 23:00:00 17.5 5 Nordeste 14 Norte 0 -- -- 69
2020-07-09 22:00:00 18.9 8 Norte 15 Este 0 -- -- 65
2020-07-09 21:00:00 22.3 9 Este 30 Este 0 -- -- 55
2020-07-09 20:00:00 23.7 20 Sudeste 45 Sudeste 0 -- -- 50
2020-07-09 19:00:00 29.5 19 Este 35 Nordeste 0 -- -- 38
2020-07-09 18:00:00 30.3 15 Nordeste 31 Nordeste 0 -- -- 40
2020-07-09 17:00:00 31.2 14 Este 24 Nordeste 0 -- -- 33
2020-07-09 16:00:00 30.6 9 Norte 23 Este 0 -- -- 32
2020-07-09 15:00:00 30.2 10 Sudeste 27 Nordeste 0 -- -- 36
2020-07-09 14:00:00 29.1 12 Sudeste 26 Este 0 -- -- 42
2020-07-09 13:00:00 27.9 9 Este 27 Nordeste 0 -- -- 43
2020-07-09 12:00:00 26.5 10 Este 20 Este 0 -- -- 46
2020-07-09 11:00:00 23.9 12 Nordeste 21 Nordeste 0 -- -- 54
2020-07-09 10:00:00 21.6 14 Nordeste 23 Nordeste 0 -- -- 62
2020-07-09 09:00:00 18.9 6 Norte 12 Nordeste 0 -- -- 71
2020-07-09 08:00:00 15.9 4 Noroeste 10 Nordeste 0 -- -- 81
2020-07-09 07:00:00 14.4 4 Norte 10 Nordeste 0 -- -- 82
2020-07-09 06:00:00 14.7 3 Norte 10 Nordeste 0 -- -- 79
2020-07-09 05:00:00 15.3 2 Sudeste 18 Noroeste 0 -- -- 81
2020-07-09 04:00:00 15.1 6 Norte 17 Norte 0 -- -- 83
2020-07-09 03:00:00 15.8 4 Norte 14 Norte 0 -- -- 78
2020-07-09 02:00:00 17.4 3 Oeste 15 Nordeste 0 -- -- 74
2020-07-09 01:00:00 19 7 Este 19 Sudeste 0 -- -- 61
2020-07-09 00:00:00 20.2 7 Este 26 Sudeste 0 -- -- 58
2020-07-08 23:00:00 22 7 Este 39 Sudoeste 0 -- -- 56
2020-07-08 22:00:00 23 23 Este 45 Este 0 -- -- 44
2020-07-08 21:00:00 25.3 21 Este 43 Este 0 -- -- 38
2020-07-08 20:00:00 26.9 13 Nordeste 35 Nordeste 0 -- -- 31
2020-07-08 19:00:00 26.4 20 Nordeste 84 Sur 0 -- -- 30
2020-07-08 18:00:00 26.1 21 Sudeste 48 Sudeste 0 -- -- 29
2020-07-08 17:00:00 27 15 Nordeste 30 Nordeste 0 -- -- 44
2020-07-08 16:00:00 26.9 15 Nordeste 23 Este 0 -- -- 43
2020-07-08 15:00:00 28 13 Este 26 Este 0 -- -- 40
2020-07-08 14:00:00 28.6 13 Este 28 Nordeste 0 -- -- 38
2020-07-08 13:00:00 25.9 11 Nordeste 23 Nordeste 0 -- -- 39
2020-07-08 12:00:00 24.1 4 Sudeste 20 Este 0 -- -- 42
2020-07-08 11:00:00 23.5 14 Nordeste 23 Nordeste 0 -- -- 40
2020-07-08 10:00:00 21.1 10 Nordeste 20 Nordeste 0 -- -- 42
2020-07-08 09:00:00 18.9 10 Nordeste 19 Nordeste 0 -- -- 43
2020-07-08 08:00:00 14.1 5 Norte 9 Nordeste 0 -- -- 58
2020-07-08 07:00:00 12.8 0 Calma 10 Nordeste 0 -- -- 55
2020-07-08 06:00:00 13.7 4 Norte 10 Norte 0 -- -- 57
2020-07-08 05:00:00 14 4 Norte 13 Sur 0 -- -- 61
2020-07-08 04:00:00 14.9 10 Nordeste 17 Norte 0 -- -- 65
2020-07-08 03:00:00 15.7 5 Norte 13 Nordeste 0 -- -- 70
2020-07-08 02:00:00 16.4 2 Norte 9 Norte 0 -- -- 71
2020-07-08 01:00:00 16.7 3 Norte 7 Norte 0 -- -- 70
2020-07-08 00:00:00 18 4 Nordeste 9 Nordeste 0 -- -- 65
2020-07-07 23:00:00 19.9 0 Calma 7 Nordeste 0 -- -- 60
2020-07-07 22:00:00 22.2 4 Nordeste 25 Nordeste 0 -- -- 51
2020-07-07 21:00:00 25.1 15 Nordeste 30 Nordeste 0 -- -- 43
2020-07-07 20:00:00 27.8 21 Nordeste 33 Nordeste 0 -- -- 37
2020-07-07 19:00:00 31.6 13 Este 24 Este 0 -- -- 30
2020-07-07 18:00:00 31.5 10 Sudeste 22 Nordeste 0 -- -- 29
2020-07-07 17:00:00 31.4 9 Sudeste 23 Este 0 -- -- 30
2020-07-07 16:00:00 29.7 6 Nordeste 20 Nordeste 0 -- -- 30
2020-07-07 15:00:00 28.7 6 Este 19 Este 0 -- -- 32
2020-07-07 14:00:00 26.6 8 Este 20 Este 0 -- -- 28
2020-07-07 13:00:00 24.8 10 Este 22 Nordeste 0 -- -- 26
2020-07-07 12:00:00 22.4 13 Nordeste 25 Nordeste 0 -- -- 23
2020-07-07 11:00:00 19.7 13 Este 24 Este 0 -- -- 37
2020-07-07 10:00:00 16.6 17 Nordeste 24 Nordeste 0 -- -- 45
2020-07-07 09:00:00 13.3 8 Nordeste 14 Nordeste 0 -- -- 64
2020-07-07 08:00:00 9.6 6 Norte 10 Norte 0 -- -- 80
2020-07-07 07:00:00 9.1 3 Norte 6 Nordeste 0 -- -- 81
2020-07-07 06:00:00 10 0 Calma 7 Norte 0 -- -- 76
2020-07-07 05:00:00 10.3 3 Norte 13 Nordeste 0 -- -- 76
2020-07-07 04:00:00 11 4 Noroeste 10 Norte 0 -- -- 76
2020-07-07 03:00:00 11.2 2 Norte 17 Nordeste 0 -- -- 78
2020-07-07 02:00:00 11.6 9 Nordeste 21 Nordeste 0 -- -- 82
2020-07-07 01:00:00 12 6 Nordeste 18 Nordeste 0 -- -- 83
2020-07-07 00:00:00 12.4 6 Nordeste 22 Nordeste 0 -- -- 85
2020-07-06 23:00:00 13.1 5 Norte 31 Nordeste 0 -- -- 84
2020-07-06 22:00:00 14.1 15 Nordeste 39 Nordeste 0 -- -- 81
2020-07-06 21:00:00 16.8 17 Nordeste 45 Nordeste 0 -- -- 71
2020-07-06 20:00:00 20.1 21 Este 40 Nordeste 0 -- -- 60
2020-07-06 19:00:00 21.8 22 Este 39 Este 0 -- -- 55
2020-07-06 18:00:00 23.3 24 Este 39 Nordeste 0 -- -- 51
2020-07-06 17:00:00 24.5 20 Nordeste 35 Nordeste 0 -- -- 48
2020-07-06 16:00:00 24.6 18 Este 36 Nordeste 0 -- -- 48
2020-07-06 15:00:00 24.2 21 Este 42 Este 0 -- -- 50
2020-07-06 14:00:00 23.5 21 Este 38 Nordeste 0 -- -- 55
2020-07-06 13:00:00 22.8 18 Este 34 Este 0 -- -- 57
2020-07-06 12:00:00 21.6 15 Este 31 Nordeste 0 -- -- 61
2020-07-06 11:00:00 19.8 19 Nordeste 35 Este 0 -- -- 66
2020-07-06 10:00:00 17.7 22 Nordeste 34 Nordeste 0 -- -- 75
2020-07-06 09:00:00 16.9 14 Este 27 Este 0 -- -- 77
2020-07-06 08:00:00 14.6 13 Este 27 Este 0 -- -- 86
2020-07-06 07:00:00 13.7 5 Nordeste 13 Nordeste 0 -- -- 88
2020-07-06 06:00:00 14.2 4 Norte 13 Este 0 -- -- 85
2020-07-06 05:00:00 14.1 2 Nordeste 9 Este 0 -- -- 86
2020-07-06 04:00:00 14.8 3 Este 23 Nordeste 0 -- -- 84
2020-07-06 03:00:00 15.4 8 Nordeste 19 Nordeste 0 -- -- 84
2020-07-06 02:00:00 16.5 3 Norte 21 Este 0 -- -- 80
2020-07-06 01:00:00 17.7 8 Nordeste 32 Nordeste 0 -- -- 76
2020-07-06 00:00:00 18.8 13 Nordeste 36 Nordeste 0 -- -- 69
2020-07-05 23:00:00 20 22 Nordeste 36 Este 0 -- -- 68
2020-07-05 22:00:00 21.9 19 Nordeste 36 Nordeste 0 -- -- 59
2020-07-05 21:00:00 25 20 Nordeste 33 Nordeste 0 -- -- 52
2020-07-05 20:00:00 27.5 19 Nordeste 32 Nordeste 0 -- -- 43
2020-07-05 19:00:00 30 12 Este 27 Este 0 -- -- 39
2020-07-05 18:00:00 30.4 9 Este 23 Este 0 -- -- 35
2020-07-05 17:00:00 30.4 9 Este 26 Este 0 -- -- 38
2020-07-05 16:00:00 29.5 11 Nordeste 28 Nordeste 0 -- -- 37
2020-07-05 15:00:00 28.6 10 Nordeste 23 Este 0 -- -- 41
2020-07-05 14:00:00 27.2 10 Nordeste 23 Este 0 -- -- 42
2020-07-05 13:00:00 26.9 9 Sudeste 23 Este 0 -- -- 46
2020-07-05 12:00:00 25.2 10 Este 23 Nordeste 0 -- -- 46
2020-07-05 11:00:00 23.3 13 Nordeste 21 Nordeste 0 -- -- 52
2020-07-05 10:00:00 20.7 8 Nordeste 16 Nordeste 0 -- -- 59
2020-07-05 09:00:00 15.9 4 Noroeste 14 Norte 0 -- -- 75
2020-07-05 08:00:00 11.8 9 Norte 14 Noroeste 0 -- -- 88
2020-07-05 07:00:00 10.9 8 Norte 15 Norte 0 -- -- 88
2020-07-05 06:00:00 11.3 8 Norte 13 Norte 0 -- -- 86
2020-07-05 05:00:00 11.8 3 Norte 9 Norte 0 -- -- 79
2020-07-05 04:00:00 12.7 3 Norte 7 Norte 0 -- -- 74
2020-07-05 03:00:00 14.2 0 Calma 6 Norte 0 -- -- 70
2020-07-05 02:00:00 15.3 3 Norte 14 Nordeste 0 -- -- 63
2020-07-05 01:00:00 16.3 6 Nordeste 14 Nordeste 0 -- -- 62
2020-07-05 00:00:00 17.1 5 Nordeste 20 Nordeste 0 -- -- 65
2020-07-04 23:00:00 18.5 13 Nordeste 28 Nordeste 0 -- -- 60
2020-07-04 22:00:00 20.2 16 Este 29 Este 0 -- -- 56
2020-07-04 21:00:00 23.6 15 Este 27 Este 0 -- -- 50
2020-07-04 20:00:00 25.9 16 Este 30 Nordeste 0 -- -- 42
2020-07-04 19:00:00 28.7 14 Este 24 Este 0 -- -- 33
2020-07-04 18:00:00 28.3 9 Nordeste 19 Nordeste 0 -- -- 29
2020-07-04 17:00:00 28 7 Este 26 Sur 0 -- -- 31
2020-07-04 16:00:00 27.8 10 Este 19 Este 0 -- -- 32
2020-07-04 15:00:00 26.4 10 Oeste 22 Nordeste 0 -- -- 34
2020-07-04 14:00:00 25.3 8 Este 15 Nordeste 0 -- -- 36
2020-07-04 13:00:00 23.4 6 Oeste 15 Noroeste 0 -- -- 39
2020-07-04 12:00:00 21.5 5 Noroeste 16 Oeste 0 -- -- 46
2020-07-04 11:00:00 17.6 3 Noroeste 8 Sur 0 -- -- 56
2020-07-04 10:00:00 13.9 3 Noroeste 8 Noroeste 0 -- -- 76
2020-07-04 09:00:00 10 5 Norte 13 Norte 0 -- -- 98
2020-07-04 08:00:00 8.3 6 Norte 14 Norte 0 -- -- 98
2020-07-04 07:00:00 8 4 Norte 12 Norte 0 -- -- 98
2020-07-04 06:00:00 7.4 9 Norte 15 Norte 0 -- -- 96
2020-07-04 05:00:00 7 3 Nordeste 4 Norte 0 -- -- 94
2020-07-04 04:00:00 8.6 0 Calma 5 Norte 0 -- -- 93
2020-07-04 03:00:00 9.3 3 Nordeste 6 Nordeste 0 -- -- 92
2020-07-04 02:00:00 10.3 2 Nordeste 8 Nordeste 0 -- -- 89
2020-07-04 01:00:00 11.5 3 Norte 6 Norte 0 -- -- 86
2020-07-04 00:00:00 12.6 0 Calma 10 Nordeste 0 -- -- 81
2020-07-03 23:00:00 13.9 6 Norte 19 Nordeste 0 -- -- 77
2020-07-03 22:00:00 15.8 15 Nordeste 31 Nordeste 0 -- -- 70
2020-07-03 21:00:00 19.5 15 Este 31 Este 0 -- -- 58
2020-07-03 20:00:00 23.3 11 Este 26 Sudeste 0 -- -- 44
2020-07-03 19:00:00 24.5 5 Sudeste 25 Sudeste 0 -- -- 41
2020-07-03 18:00:00 22.7 8 Nordeste 17 Nordeste 0 -- -- 43
2020-07-03 17:00:00 22 6 Nordeste 25 Nordeste 0 -- -- 44
2020-07-03 16:00:00 21.2 9 Este 26 Nordeste 0 -- -- 44
2020-07-03 15:00:00 20 12 Este 28 Nordeste 0 -- -- 43
2020-07-03 14:00:00 18.8 14 Nordeste 27 Este 0 -- -- 47
2020-07-03 13:00:00 17.9 16 Nordeste 27 Este 0 -- -- 53
2020-07-03 12:00:00 16.9 12 Este 25 Este 0 -- -- 56
2020-07-03 11:00:00 15.4 11 Nordeste 28 Nordeste 0 -- -- 64
2020-07-03 10:00:00 13.5 15 Nordeste 26 Nordeste 0 -- -- 69
2020-07-03 09:00:00 11.4 12 Nordeste 21 Nordeste 0 -- -- 78
2020-07-03 08:00:00 9.1 4 Norte 13 Nordeste 0 -- -- 87
2020-07-03 07:00:00 7.7 0 Calma 10 Este 0 -- -- 86
2020-07-03 06:00:00 8.3 5 Nordeste 21 Norte 0 -- -- 86
2020-07-03 05:00:00 9 9 Nordeste 27 Este 0 -- -- 90
2020-07-03 04:00:00 8.8 7 Este 15 Nordeste 0 -- -- 90
2020-07-03 03:00:00 9.2 6 Nordeste 22 Nordeste 0 -- -- 89
2020-07-03 02:00:00 9.5 8 Nordeste 28 Nordeste 0 -- -- 87
2020-07-03 01:00:00 10 17 Nordeste 32 Este 0 -- -- 86
2020-07-03 00:00:00 11.1 19 Nordeste 37 Nordeste 0 -- -- 80
2020-07-02 23:00:00 11.6 20 Nordeste 33 Nordeste 0 -- -- 79
2020-07-02 22:00:00 12.3 23 Nordeste 36 Nordeste 0 -- -- 76
2020-07-02 21:00:00 14.8 21 Nordeste 46 Este 0 -- -- 68
2020-07-02 20:00:00 17 24 Nordeste 45 Nordeste 0 -- -- 62
2020-07-02 19:00:00 18.6 25 Nordeste 46 Nordeste 0 -- -- 59
2020-07-02 18:00:00 20 27 Nordeste 44 Nordeste 0 -- -- 57
2020-07-02 17:00:00 21.2 24 Nordeste 39 Este 0 -- -- 56
2020-07-02 16:00:00 21.7 20 Nordeste 35 Nordeste 0 -- -- 57
2020-07-02 15:00:00 21.4 15 Nordeste 28 Nordeste 0 -- -- 58
2020-07-02 14:00:00 22.1 11 Sur 22 Sur 0 -- -- 55
2020-07-02 13:00:00 19.7 8 Sudoeste 18 Sur 0 -- -- 61
2020-07-02 12:00:00 19.9 6 Sudeste 14 Sur 0 -- -- 63
2020-07-02 11:00:00 17.4 4 Sudeste 14 Este 0 -- -- 73
2020-07-02 10:00:00 16.6 8 Este 16 Este 0 -- -- 80
2020-07-02 09:00:00 14.4 12 Nordeste 17 Nordeste 0 -- -- 87
2020-07-02 08:00:00 13.7 4 Este 6 Este 0 -- -- 91
2020-07-02 07:00:00 12.9 0 Calma 8 Norte 0 -- -- 91
2020-07-02 06:00:00 12.5 3 Norte 5 Norte 0 -- -- 93
2020-07-02 05:00:00 11.8 0 Calma 5 Nordeste 0 -- -- 95
2020-07-02 04:00:00 9.9 3 Nordeste 5 Norte 0 -- -- 94
2020-07-02 03:00:00 11 0 Calma 4 Este 0 -- -- 92
2020-07-02 02:00:00 12.5 0 Calma 6 Norte 0 -- -- 90
2020-07-02 01:00:00 13.2 4 Norte 7 Norte 0 -- -- 88
2020-07-02 00:00:00 14.2 3 Norte 19 Nordeste 0 -- -- 85
2020-07-01 23:00:00 15 9 Nordeste 21 Nordeste 0 -- -- 82
2020-07-01 22:00:00 16.6 15 Nordeste 37 Nordeste 0 -- -- 77
2020-07-01 21:00:00 19.2 19 Nordeste 36 Este 0 -- -- 69
2020-07-01 20:00:00 22.2 23 Este 46 Este 0 -- -- 61
2020-07-01 19:00:00 29.3 14 Sudoeste 34 Oeste 0 -- -- 42
2020-07-01 18:00:00 28.5 19 Oeste 36 Oeste 0 -- -- 35
2020-07-01 17:00:00 29 19 Oeste 40 Oeste 0 -- -- 30
2020-07-01 16:00:00 28.4 22 Oeste 38 Oeste 0 -- -- 30
2020-07-01 15:00:00 27.9 21 Oeste 37 Sudoeste 0 -- -- 34
2020-07-01 14:00:00 27 21 Sudoeste 33 Sudoeste 0 -- -- 39
2020-07-01 13:00:00 25.1 19 Sudoeste 29 Sudoeste 0 -- -- 53
2020-07-01 12:00:00 24.7 9 Sudoeste 19 Sudoeste 0 -- -- 58
2020-07-01 11:00:00 22.7 6 Este 13 Sur 0 -- -- 66
2020-07-01 10:00:00 20.8 3 Este 10 Este 0 -- -- 73
2020-07-01 09:00:00 17.5 0 Calma 11 Noroeste 0 -- -- 85
2020-07-01 08:00:00 14.3 4 Noroeste 8 Noroeste 0 -- -- 90
2020-07-01 07:00:00 13.3 4 Norte 15 Norte 0 -- -- 91
2020-07-01 06:00:00 14 4 Norte 11 Norte 0 -- -- 90
2020-07-01 05:00:00 14.5 4 Norte 12 Noroeste 0 -- -- 88
2020-07-01 04:00:00 15.5 2 Nordeste 9 Nordeste 0 -- -- 86
2020-07-01 03:00:00 16.8 5 Norte 9 Noroeste 0 -- -- 84
2020-07-01 02:00:00 17.8 4 Norte 10 Nordeste 0 -- -- 81
2020-07-01 01:00:00 19.3 4 Nordeste 12 Nordeste 0 -- -- 77
2020-07-01 00:00:00 20.8 10 Nordeste 28 Nordeste 0 -- -- 70
2020-06-30 23:00:00 21.3 5 Norte 27 Nordeste 0 -- -- 70
2020-06-30 22:00:00 22.8 14 Nordeste 30 Este 0 -- -- 65
2020-06-30 21:00:00 25.4 14 Nordeste 25 Nordeste 0 -- -- 55
2020-06-30 20:00:00 29.9 10 Noroeste 22 Norte 0 -- -- 35
2020-06-30 19:00:00 29.2 19 Oeste 32 Oeste 0 -- -- 32
2020-06-30 18:00:00 31.1 13 Noroeste 27 Sudoeste 0 -- -- 32
2020-06-30 17:00:00 30.7 10 Sudoeste 28 Sudoeste 0 -- -- 36
2020-06-30 16:00:00 29.4 12 Oeste 27 Sudoeste 0 -- -- 38
2020-06-30 15:00:00 29 6 Sur 20 Sudoeste 0 -- -- 44
2020-06-30 14:00:00 27.4 8 Sur 20 Sudoeste 0 -- -- 47
2020-06-30 13:00:00 26.5 5 Sudeste 16 Sur 0 -- -- 50
2020-06-30 12:00:00 24.7 7 Este 15 Nordeste 0 -- -- 51
2020-06-30 11:00:00 22.5 8 Este 19 Este 0 -- -- 54
2020-06-30 10:00:00 19.7 6 Nordeste 10 Nordeste 0 -- -- 57
2020-06-30 09:00:00 15.3 4 Noroeste 12 Noroeste 0 -- -- 65
2020-06-30 08:00:00 11.8 7 Norte 12 Noroeste 0 -- -- 76
2020-06-30 07:00:00 10.7 5 Norte 9 Norte 0 -- -- 74
2020-06-30 06:00:00 11.5 5 Norte 13 Norte 0 -- -- 69
2020-06-30 05:00:00 11.5 5 Norte 9 Norte 0 -- -- 66
2020-06-30 04:00:00 11.8 3 Nordeste 6 Nordeste 0 -- -- 80
2020-06-30 03:00:00 13.3 3 Sudeste 8 Norte 0 -- -- 78
2020-06-30 02:00:00 14.2 4 Norte 10 Nordeste 0 -- -- 79
2020-06-30 01:00:00 15.1 5 Norte 14 Nordeste 0 -- -- 77
2020-06-30 00:00:00 16 4 Nordeste 17 Norte 0 -- -- 74
2020-06-29 23:00:00 17.3 6 Nordeste 28 Este 0 -- -- 67
2020-06-29 22:00:00 19 15 Nordeste 29 Nordeste 0 -- -- 67
2020-06-29 21:00:00 21.6 17 Nordeste 30 Nordeste 0 -- -- 64
2020-06-29 20:00:00 24.4 17 Este 29 Este 0 -- -- 58
2020-06-29 19:00:00 26 13 Nordeste 23 Este 0 -- -- 54
2020-06-29 18:00:00 26.7 12 Este 22 Este 0 -- -- 53
2020-06-29 17:00:00 25.2 5 Norte 22 Este 0 -- -- 51
2020-06-29 16:00:00 25.4 10 Este 21 Nordeste 0 -- -- 52
2020-06-29 15:00:00 24.7 9 Este 19 Nordeste 0 -- -- 55
2020-06-29 14:00:00 23.3 7 Noroeste 17 Oeste 0 -- -- 59
2020-06-29 13:00:00 21.2 3 Sudoeste 18 Este 0 -- -- 64
2020-06-29 12:00:00 19.9 8 Nordeste 20 Este 0 -- -- 68
2020-06-29 11:00:00 19.2 11 Este 20 Este 0 -- -- 76
2020-06-29 10:00:00 17.6 9 Este 23 Nordeste 0 -- -- 79
2020-06-29 09:00:00 15.1 10 Nordeste 18 Nordeste 0 -- -- 89
2020-06-29 08:00:00 14.3 3 Nordeste 7 Nordeste 0 -- -- 93
2020-06-29 07:00:00 13.1 4 Norte 10 Este 0 -- -- 96
2020-06-29 06:00:00 12.1 2 Norte 8 Norte 0 -- -- 94
2020-06-29 05:00:00 12.6 2 Norte 8 Norte 0 -- -- 93
2020-06-29 04:00:00 13.3 2 Norte 9 Nordeste 0 -- -- 91
2020-06-29 03:00:00 13.8 3 Norte 9 Nordeste 0 -- -- 90
2020-06-29 02:00:00 14.4 2 Noroeste 14 Nordeste 0 -- -- 88
2020-06-29 01:00:00 15 2 Nordeste 28 Nordeste 0 -- -- 86
2020-06-29 00:00:00 15.6 15 Nordeste 33 Nordeste 0 -- -- 85
2020-06-28 23:00:00 16 19 Nordeste 30 Este 0 -- -- 84
2020-06-28 22:00:00 18.3 14 Nordeste 30 Nordeste 0 -- -- 75
2020-06-28 21:00:00 22.4 19 Nordeste 27 Nordeste 0 -- -- 62
2020-06-28 20:00:00 26.6 15 Oeste 30 Oeste 0 -- -- 43
2020-06-28 19:00:00 27.5 16 Oeste 32 Noroeste 0 -- -- 42
2020-06-28 18:00:00 27.4 14 Oeste 31 Oeste 0 -- -- 43
2020-06-28 17:00:00 27.1 16 Oeste 32 Sudoeste 0 -- -- 43
2020-06-28 16:00:00 26.5 12 Sudoeste 35 Sudoeste 0 -- -- 45
2020-06-28 15:00:00 25.6 15 Sudoeste 26 Oeste 0 -- -- 46
2020-06-28 14:00:00 24.4 12 Sudoeste 26 Oeste 0 -- -- 49
2020-06-28 13:00:00 22.8 10 Oeste 22 Oeste 0 -- -- 55
2020-06-28 12:00:00 21.1 13 Sudoeste 23 Sudoeste 0 -- -- 57
2020-06-28 11:00:00 19 4 Sur 13 Sur 0 -- -- 76
2020-06-28 10:00:00 16.7 2 Oeste 9 Sur 0 -- -- 84
2020-06-28 09:00:00 14.9 3 Oeste 6 Oeste 0 -- -- 93
2020-06-28 08:00:00 13.6 3 Norte 5 Norte 0 -- -- 98
2020-06-28 07:00:00 13.3 2 Norte 6 Noroeste 0 -- -- 98
2020-06-28 06:00:00 13.3 3 Noroeste 6 Noroeste 0 -- -- 98
2020-06-28 05:00:00 12.8 0 Calma 6 Noroeste 0 -- -- 97
2020-06-28 04:00:00 12.3 4 Noroeste 9 Norte 0 -- -- 94
2020-06-28 03:00:00 12.4 0 Calma 8 Norte 0 -- -- 89
2020-06-28 02:00:00 13.3 5 Norte 9 Norte 0 -- -- 86
2020-06-28 01:00:00 14.3 6 Nordeste 14 Noroeste 0 -- -- 83
2020-06-28 00:00:00 16.6 3 Norte 15 Noroeste 0 -- -- 74
2020-06-27 23:00:00 16.9 3 Nordeste 11 Noroeste 0 -- -- 73
2020-06-27 22:00:00 20 8 Oeste 29 Oeste 0 -- -- 60
2020-06-27 21:00:00 22.8 21 Oeste 37 Oeste 0 -- -- 50
2020-06-27 20:00:00 24 19 Oeste 28 Oeste 0 -- -- 48
2020-06-27 19:00:00 24.5 21 Oeste 34 Oeste 0 -- -- 48
2020-06-27 18:00:00 24.2 19 Oeste 32 Oeste 0 -- -- 49
2020-06-27 17:00:00 23.7 16 Oeste 35 Oeste 0 -- -- 51
2020-06-27 16:00:00 23.4 21 Oeste 39 Sudoeste 0 -- -- 53
2020-06-27 15:00:00 22.2 21 Oeste 32 Oeste 0 -- -- 58
2020-06-27 14:00:00 21.5 20 Oeste 33 Sudoeste 0 -- -- 59
2020-06-27 13:00:00 21.3 24 Sudoeste 38 Oeste 0 -- -- 58
2020-06-27 12:00:00 19.6 15 Sudoeste 27 Sudoeste 0 -- -- 65
2020-06-27 11:00:00 18.3 18 Sudoeste 28 Oeste 0 -- -- 69
2020-06-27 10:00:00 16.4 16 Oeste 27 Oeste 0 -- -- 79
2020-06-27 09:00:00 14.2 9 Sudoeste 18 Sudoeste 0 -- -- 89
2020-06-27 08:00:00 10.4 0 Calma 9 Norte 0 -- -- 94
2020-06-27 07:00:00 8.3 2 Nordeste 7 Nordeste 0 -- -- 94
2020-06-27 06:00:00 8.9 0 Calma 4 Este 0 -- -- 93
2020-06-27 05:00:00 9.7 4 Nordeste 7 Nordeste 0 -- -- 91
2020-06-27 04:00:00 10.8 4 Nordeste 9 Nordeste 0 -- -- 90
2020-06-27 03:00:00 11.2 2 Norte 8 Nordeste 0 -- -- 87
2020-06-27 02:00:00 12.6 4 Este 6 Este 0 -- -- 83
2020-06-27 01:00:00 13.9 4 Nordeste 12 Nordeste 0 -- -- 78
2020-06-27 00:00:00 16.4 7 Nordeste 18 Noroeste 0 -- -- 70
2020-06-26 23:00:00 17.3 4 Norte 13 Oeste 0 -- -- 64
2020-06-26 22:00:00 19.7 8 Oeste 23 Oeste 0 -- -- 56
2020-06-26 21:00:00 24.1 12 Sudoeste 18 Sur 0 -- -- 40
2020-06-26 20:00:00 23.4 12 Sudoeste 25 Sudoeste 0 -- -- 35
2020-06-26 19:00:00 24.8 15 Sudoeste 31 Oeste 0 -- -- 34
2020-06-26 18:00:00 25.4 23 Oeste 37 Oeste 0 -- -- 33
2020-06-26 17:00:00 24.8 21 Sudoeste 41 Sudoeste 0 -- -- 37
2020-06-26 16:00:00 24.8 21 Oeste 42 Sudoeste 0 -- -- 46
2020-06-26 15:00:00 23.8 25 Sudoeste 42 Sudoeste 0 -- -- 51
2020-06-26 14:00:00 22.9 21 Sudoeste 31 Sudoeste 0 -- -- 62
2020-06-26 13:00:00 23.2 10 Sur 22 Sur 0 -- -- 66
2020-06-26 12:00:00 21.4 7 Sudeste 16 Sudeste 0 -- -- 73
2020-06-26 11:00:00 19.4 4 Sur 11 Sur 0 -- -- 79
2020-06-26 10:00:00 18 5 Este 13 Nordeste 0 -- -- 84
2020-06-26 09:00:00 16.2 4 Nordeste 10 Nordeste 0 -- -- 89
2020-06-26 08:00:00 13.9 4 Norte 6 Norte 0 -- -- 97
2020-06-26 07:00:00 13.1 3 Norte 6 Nordeste 0 -- -- 96
2020-06-26 06:00:00 13.6 4 Norte 14 Nordeste 0 -- -- 96
2020-06-26 05:00:00 13.4 4 Norte 13 Nordeste 0 -- -- 96
2020-06-26 04:00:00 13.7 4 Norte 6 Noroeste 0 -- -- 95
2020-06-26 03:00:00 14.2 4 Norte 6 Norte 0 -- -- 93
2020-06-26 02:00:00 14.9 4 Norte 6 Noroeste 0 -- -- 92
2020-06-26 01:00:00 16 2 Oeste 16 Nordeste 0 -- -- 89
2020-06-26 00:00:00 16.4 3 Norte 8 Norte 0 -- -- 90
2020-06-25 23:00:00 16.7 5 Norte 12 Nordeste 0 -- -- 88
2020-06-25 22:00:00 18.1 7 Este 23 Este 0 -- -- 83
2020-06-25 21:00:00 19.6 9 Este 27 Este 0.2 -- -- 79
2020-06-25 20:00:00 19.6 12 Este 29 Este 0.4 -- -- 78
2020-06-25 19:00:00 25.5 16 Este 31 Este 0 -- -- 56
2020-06-25 18:00:00 24.7 12 Nordeste 21 Este 0 -- -- 57
2020-06-25 17:00:00 23.5 9 Este 20 Nordeste 0 -- -- 65
2020-06-25 16:00:00 20.5 9 Nordeste 16 Nordeste 0.2 -- -- 84
2020-06-25 15:00:00 18.9 3 Norte 10 Nordeste 0.2 -- -- 91
2020-06-25 14:00:00 18.1 4 Sudeste 13 Este 1 -- -- 90
2020-06-25 13:00:00 19.1 0 Calma 12 Este 0.2 -- -- 82
2020-06-25 12:00:00 20.6 4 Este 17 Este 0 -- -- 72
2020-06-25 11:00:00 20.9 4 Nordeste 15 Este 0 -- -- 68
2020-06-25 10:00:00 17 3 Norte 21 Nordeste 0 -- -- 88
2020-06-25 09:00:00 16.3 17 Nordeste 27 Nordeste 1.4 -- -- 83
2020-06-25 08:00:00 15.5 8 Este 33 Nordeste 0 -- -- 87
2020-06-25 07:00:00 15.4 24 Oeste 52 Oeste 0.2 -- -- 85
2020-06-25 06:00:00 14.6 15 Nordeste 27 Nordeste 0.2 -- -- 91
2020-06-25 05:00:00 14.2 4 Norte 16 Sudoeste 0.8 -- -- 92
2020-06-25 04:00:00 14.9 6 Norte 11 Norte 0 -- -- 88
2020-06-25 03:00:00 15.5 6 Sur 14 Nordeste 0 -- -- 87
2020-06-25 02:00:00 15.9 5 Norte 17 Norte 0 -- -- 87
2020-06-25 01:00:00 16.8 11 Norte 28 Norte 0.6 -- -- 80
2020-06-25 00:00:00 17.6 9 Norte 32 Noroeste 0.2 -- -- 78
2020-06-24 23:00:00 20.3 24 Oeste 38 Oeste 0 -- -- 60
2020-06-24 22:00:00 21.5 6 Nordeste 12 Oeste 0 -- -- 63
2020-06-24 21:00:00 22.5 3 Noroeste 20 Sur 0 -- -- 60
2020-06-24 20:00:00 24.6 14 Sur 24 Sudeste 0 -- -- 48
2020-06-24 19:00:00 26.2 5 Sudeste 17 Nordeste 0 -- -- 50
2020-06-24 18:00:00 26.4 9 Norte 23 Nordeste 0 -- -- 40
2020-06-24 17:00:00 23.4 13 Nordeste 23 Norte 0 -- -- 54
2020-06-24 16:00:00 23.4 9 Sudeste 46 Sudoeste 0.8 -- -- 62
2020-06-24 15:00:00 28.4 5 Este 22 Este 0 -- -- 36
2020-06-24 14:00:00 28.6 9 Sudeste 16 Este 0 -- -- 42
2020-06-24 13:00:00 27.2 3 Sur 16 Este 0 -- -- 42
2020-06-24 12:00:00 26.5 10 Sudeste 19 Sur 0 -- -- 47
2020-06-24 11:00:00 24.8 10 Sudeste 26 Sudeste 0 -- -- 48
2020-06-24 10:00:00 21.5 0 Calma 6 Norte 0 -- -- 58
2020-06-24 09:00:00 18.6 5 Norte 10 Noroeste 0 -- -- 63
2020-06-24 08:00:00 14.1 6 Norte 19 Norte 0 -- -- 75
2020-06-24 07:00:00 13.7 8 Norte 16 Norte 0 -- -- 77
2020-06-24 06:00:00 14.5 0 Calma 9 Norte 0 -- -- 72
2020-06-24 05:00:00 16.5 4 Nordeste 16 Este 0 -- -- 65
2020-06-24 04:00:00 16 0 Calma 7 Este 0 -- -- 66
2020-06-24 03:00:00 18.6 3 Nordeste 15 Norte 0 -- -- 59
2020-06-24 02:00:00 21.5 9 Norte 32 Norte 0 -- -- 50
2020-06-24 01:00:00 21.6 4 Norte 42 Este 0 -- -- 50
2020-06-24 00:00:00 23.8 19 Oeste 56 Sudoeste 0 -- -- 41
2020-06-23 23:00:00 23.4 12 Este 27 Este 0 -- -- 45
2020-06-23 22:00:00 24.8 17 Nordeste 26 Nordeste 0 -- -- 46
2020-06-23 21:00:00 28.6 8 Este 16 Nordeste 0 -- -- 39
2020-06-23 20:00:00 30.9 6 Norte 14 Noroeste 0 -- -- 28
2020-06-23 19:00:00 31.8 10 Oeste 22 Noroeste 0 -- -- 26
2020-06-23 18:00:00 31.7 9 Oeste 24 Noroeste 0 -- -- 28
2020-06-23 17:00:00 31.4 9 Noroeste 27 Oeste 0 -- -- 26
2020-06-23 16:00:00 31.1 14 Oeste 28 Oeste 0 -- -- 28
2020-06-23 15:00:00 30.5 14 Oeste 24 Sudoeste 0 -- -- 32
2020-06-23 14:00:00 29.4 6 Sudoeste 17 Sudoeste 0 -- -- 36
2020-06-23 13:00:00 27.7 4 Oeste 15 Sur 0 -- -- 37
2020-06-23 12:00:00 26.1 4 Nordeste 15 Este 0 -- -- 40
2020-06-23 11:00:00 24 6 Este 17 Este 0 -- -- 43
2020-06-23 10:00:00 21 5 Nordeste 11 Nordeste 0 -- -- 51
2020-06-23 09:00:00 15.4 8 Norte 13 Norte 0 -- -- 65
2020-06-23 08:00:00 11.3 4 Norte 12 Norte 0 -- -- 77
2020-06-23 07:00:00 9.1 2 Noroeste 14 Norte 0 -- -- 85
2020-06-23 06:00:00 10.4 9 Norte 15 Norte 0 -- -- 81
2020-06-23 05:00:00 11.5 9 Norte 14 Norte 0 -- -- 82
2020-06-23 04:00:00 11.4 7 Norte 14 Noroeste 0 -- -- 89
2020-06-23 03:00:00 12.4 5 Norte 12 Norte 0 -- -- 88
2020-06-23 02:00:00 13.4 5 Norte 9 Nordeste 0 -- -- 88
2020-06-23 01:00:00 15.5 3 Oeste 9 Nordeste 0 -- -- 83
2020-06-23 00:00:00 17 5 Noroeste 15 Nordeste 0 -- -- 78
2020-06-22 23:00:00 19.5 11 Nordeste 21 Este 0 -- -- 72
2020-06-22 22:00:00 21.8 10 Este 19 Nordeste 0 -- -- 63
2020-06-22 21:00:00 24.9 11 Nordeste 30 Nordeste 0 -- -- 46
2020-06-22 20:00:00 27.2 14 Este 29 Nordeste 0 -- -- 40
2020-06-22 19:00:00 28.2 14 Este 26 Este 0 -- -- 35
2020-06-22 18:00:00 28.1 15 Nordeste 24 Nordeste 0 -- -- 34
2020-06-22 17:00:00 27.9 13 Nordeste 27 Nordeste 0 -- -- 36
2020-06-22 16:00:00 27.6 10 Sudeste 24 Este 0 -- -- 40
2020-06-22 15:00:00 26.5 13 Este 24 Nordeste 0 -- -- 41
2020-06-22 14:00:00 25.2 11 Este 26 Sudeste 0 -- -- 39
2020-06-22 13:00:00 23.6 12 Este 27 Este 0 -- -- 45
2020-06-22 12:00:00 21.5 15 Nordeste 26 Este 0 -- -- 49
2020-06-22 11:00:00 19.4 13 Nordeste 22 Este 0 -- -- 59
2020-06-22 10:00:00 17.2 8 Nordeste 17 Nordeste 0 -- -- 73
2020-06-22 09:00:00 14.4 8 Nordeste 16 Nordeste 0 -- -- 83
2020-06-22 08:00:00 12.9 4 Norte 9 Norte 0 -- -- 89
2020-06-22 07:00:00 12.6 5 Nordeste 15 Nordeste 0 -- -- 92
2020-06-22 06:00:00 12.7 6 Nordeste 17 Nordeste 0 -- -- 91
2020-06-22 05:00:00 12.7 5 Nordeste 14 Nordeste 0 -- -- 93
2020-06-22 04:00:00 12.6 5 Norte 13 Nordeste 0 -- -- 92
2020-06-22 03:00:00 12.9 3 Nordeste 17 Este 0 -- -- 90
2020-06-22 02:00:00 13.3 6 Nordeste 16 Nordeste 0 -- -- 89
2020-06-22 01:00:00 13.8 5 Norte 18 Nordeste 0 -- -- 87
2020-06-22 00:00:00 14.2 5 Norte 21 Nordeste 0 -- -- 85
2020-06-21 23:00:00 14.8 12 Nordeste 28 Este 0 -- -- 83
2020-06-21 22:00:00 16.8 19 Nordeste 37 Nordeste 0 -- -- 75
2020-06-21 21:00:00 18.9 21 Nordeste 39 Nordeste 0 -- -- 66
2020-06-21 20:00:00 21.8 21 Nordeste 39 Este 0 -- -- 60
2020-06-21 19:00:00 23.7 23 Nordeste 41 Este 0 -- -- 56
2020-06-21 18:00:00 28.2 6 Sur 21 Sudeste 0 -- -- 38
2020-06-21 17:00:00 26.5 12 Oeste 18 Oeste 0 -- -- 42
2020-06-21 16:00:00 26 6 Sudoeste 18 Sudoeste 0 -- -- 41
2020-06-21 15:00:00 25.1 8 Sur 21 Sudoeste 0 -- -- 46
2020-06-21 14:00:00 23.7 6 Sudeste 18 Sudoeste 0 -- -- 48
2020-06-21 13:00:00 22.3 5 Sudoeste 17 Nordeste 0 -- -- 50
2020-06-21 12:00:00 21.2 8 Este 17 Sudeste 0 -- -- 54
2020-06-21 11:00:00 19.7 10 Este 17 Este 0 -- -- 60
2020-06-21 10:00:00 17.7 8 Este 16 Nordeste 0 -- -- 66
2020-06-21 09:00:00 13.9 2 Noroeste 8 Norte 0 -- -- 85
2020-06-21 08:00:00 10.9 4 Norte 12 Norte 0 -- -- 91
2020-06-21 07:00:00 9.3 2 Norte 14 Norte 0 -- -- 92
2020-06-21 06:00:00 9.8 5 Nordeste 11 Norte 0 -- -- 92
2020-06-21 05:00:00 10 0 Calma 8 Norte 0 -- -- 92
2020-06-21 04:00:00 11.4 3 Norte 6 Norte 0 -- -- 89
2020-06-21 03:00:00 12.3 3 Norte 6 Norte 0 -- -- 86
2020-06-21 02:00:00 13.2 0 Calma 10 Nordeste 0 -- -- 83
2020-06-21 01:00:00 14.2 0 Calma 8 Este 0 -- -- 80
2020-06-21 00:00:00 15.3 4 Norte 11 Nordeste 0 -- -- 77
2020-06-20 23:00:00 16.6 4 Nordeste 17 Este 0 -- -- 66
2020-06-20 22:00:00 18.5 6 Este 8 Este 0 -- -- 59
2020-06-20 21:00:00 24.6 4 Norte 18 Oeste 0 -- -- 38
2020-06-20 20:00:00 25.6 14 Oeste 28 Sudoeste 0 -- -- 35
2020-06-20 19:00:00 26.1 17 Sudoeste 29 Oeste 0 -- -- 33
2020-06-20 18:00:00 26 14 Oeste 27 Sudoeste 0 -- -- 39
2020-06-20 17:00:00 25.4 11 Sudoeste 28 Oeste 0 -- -- 39
2020-06-20 16:00:00 24.5 12 Oeste 32 Sudoeste 0 -- -- 40
2020-06-20 15:00:00 23.3 12 Sudoeste 32 Sudoeste 0 -- -- 42
2020-06-20 14:00:00 22.2 13 Sudoeste 26 Oeste 0 -- -- 42
2020-06-20 13:00:00 20.9 15 Sudoeste 25 Sudoeste 0 -- -- 52
2020-06-20 12:00:00 19.3 12 Oeste 31 Sudoeste 0 -- -- 58
2020-06-20 11:00:00 17.6 4 Sudoeste 9 Sudoeste 0 -- -- 64
2020-06-20 10:00:00 14.8 3 Oeste 8 Noroeste 0 -- -- 75
2020-06-20 09:00:00 11.6 4 Noroeste 11 Noroeste 0 -- -- 85
2020-06-20 08:00:00 8.1 6 Norte 13 Noroeste 0 -- -- 93
2020-06-20 07:00:00 7 6 Norte 13 Noroeste 0 -- -- 94
2020-06-20 06:00:00 7.3 5 Norte 10 Norte 0 -- -- 93
2020-06-20 05:00:00 7.9 6 Norte 10 Noroeste 0 -- -- 92
2020-06-20 04:00:00 7.7 3 Norte 5 Norte 0 -- -- 90
2020-06-20 03:00:00 8.4 0 Calma 4 Este 0 -- -- 87
2020-06-20 02:00:00 10.3 2 Nordeste 9 Nordeste 0 -- -- 80
2020-06-20 01:00:00 11.7 4 Norte 14 Nordeste 0 -- -- 74
2020-06-20 00:00:00 12.6 8 Nordeste 16 Nordeste 0 -- -- 71
2020-06-19 23:00:00 13.9 9 Nordeste 25 Nordeste 0 -- -- 70
2020-06-19 22:00:00 16.8 17 Nordeste 29 Este 0 -- -- 69
2020-06-19 21:00:00 23 4 Noroeste 18 Oeste 0 -- -- 43
2020-06-19 20:00:00 23.6 9 Oeste 28 Noroeste 0 -- -- 38
2020-06-19 19:00:00 23.8 12 Oeste 30 Oeste 0 -- -- 40
2020-06-19 18:00:00 24 9 Sudoeste 30 Oeste 0 -- -- 38
2020-06-19 17:00:00 23.5 14 Oeste 31 Oeste 0 -- -- 37
2020-06-19 16:00:00 22.6 17 Sudoeste 32 Sudoeste 0 -- -- 39
2020-06-19 15:00:00 21.3 8 Oeste 30 Sudoeste 0 -- -- 43
2020-06-19 14:00:00 20.1 12 Sudoeste 24 Sudoeste 0 -- -- 49
2020-06-19 13:00:00 18.9 4 Este 17 Sudoeste 0 -- -- 56
2020-06-19 12:00:00 17.2 6 Sur 12 Noroeste 0 -- -- 66
2020-06-19 11:00:00 16.5 5 Sur 14 Nordeste 0 -- -- 67
2020-06-19 10:00:00 14.4 8 Este 16 Este 0 -- -- 73
2020-06-19 09:00:00 11.5 5 Norte 9 Nordeste 0 -- -- 82
2020-06-19 08:00:00 8.3 5 Norte 9 Norte 0 -- -- 90
2020-06-19 07:00:00 6.3 0 Calma 5 Norte 0 -- -- 93
2020-06-19 06:00:00 6.8 2 Noroeste 6 Noroeste 0 -- -- 93
2020-06-19 05:00:00 7 2 Norte 5 Noroeste 0 -- -- 92
2020-06-19 04:00:00 7.6 4 Norte 9 Nordeste 0 -- -- 91
2020-06-19 03:00:00 8.3 4 Norte 9 Norte 0 -- -- 89
2020-06-19 02:00:00 9 4 Norte 14 Nordeste 0 -- -- 86
2020-06-19 01:00:00 9.5 2 Norte 16 Nordeste 0 -- -- 85
2020-06-19 00:00:00 10.2 9 Nordeste 22 Norte 0 -- -- 85
2020-06-18 23:00:00 11.1 10 Nordeste 23 Nordeste 0 -- -- 85
2020-06-18 22:00:00 12.7 16 Nordeste 28 Nordeste 0 -- -- 79
2020-06-18 21:00:00 15.3 17 Nordeste 31 Nordeste 0 -- -- 69
2020-06-18 20:00:00 17.3 18 Nordeste 31 Nordeste 0 -- -- 62
2020-06-18 19:00:00 19.6 16 Este 26 Nordeste 0 -- -- 53
2020-06-18 18:00:00 19.8 11 Oeste 26 Sudoeste 0 -- -- 39
2020-06-18 17:00:00 20.5 12 Oeste 26 Sudoeste 0 -- -- 38
2020-06-18 16:00:00 19.8 12 Sudoeste 26 Oeste 0 -- -- 43
2020-06-18 15:00:00 19.9 8 Sur 18 Sudoeste 0 -- -- 52
2020-06-18 14:00:00 17.1 8 Sudoeste 16 Sur 0 -- -- 62
2020-06-18 13:00:00 16.3 4 Sudoeste 10 Noroeste 0 -- -- 67
2020-06-18 12:00:00 14.9 5 Noroeste 10 Oeste 0 -- -- 68
2020-06-18 11:00:00 13.6 4 Sudeste 11 Nordeste 0 -- -- 74
2020-06-18 10:00:00 11.6 7 Nordeste 15 Nordeste 0 -- -- 81
2020-06-18 09:00:00 9.8 9 Nordeste 15 Nordeste 0 -- -- 89
2020-06-18 08:00:00 8.3 3 Nordeste 14 Nordeste 0 -- -- 93
2020-06-18 07:00:00 7.4 4 Norte 9 Nordeste 0 -- -- 93
2020-06-18 06:00:00 8.5 3 Norte 8 Nordeste 0 -- -- 90
2020-06-18 05:00:00 9 4 Norte 9 Nordeste 0 -- -- 90
2020-06-18 04:00:00 9.1 5 Nordeste 10 Nordeste 0 -- -- 90
2020-06-18 03:00:00 9.4 5 Nordeste 21 Nordeste 0 -- -- 89
2020-06-18 02:00:00 9.2 10 Nordeste 26 Nordeste 0 -- -- 90
2020-06-18 01:00:00 9.8 8 Nordeste 14 Nordeste 0 -- -- 89
2020-06-18 00:00:00 10.2 3 Norte 15 Nordeste 0 -- -- 87
2020-06-17 23:00:00 10.5 7 Nordeste 14 Nordeste 0 -- -- 84
2020-06-17 22:00:00 11.3 11 Nordeste 33 Nordeste 0 -- -- 80
2020-06-17 21:00:00 12.2 18 Nordeste 29 Nordeste 0 -- -- 76
2020-06-17 20:00:00 14.1 19 Nordeste 31 Este 0 -- -- 72
2020-06-17 19:00:00 15.8 13 Nordeste 27 Nordeste 0 -- -- 65
2020-06-17 18:00:00 17.6 9 Noroeste 18 Noroeste 0 -- -- 48
2020-06-17 17:00:00 16.7 8 Nordeste 29 Oeste 0 -- -- 55
2020-06-17 16:00:00 18.2 10 Oeste 23 Oeste 0 -- -- 44
2020-06-17 15:00:00 18.4 15 Sudoeste 24 Oeste 0 -- -- 50
2020-06-17 14:00:00 15.8 11 Oeste 21 Oeste 0 -- -- 54
2020-06-17 13:00:00 15.4 7 Oeste 16 Oeste 0 -- -- 57
2020-06-17 12:00:00 14 7 Oeste 18 Oeste 0 -- -- 61
2020-06-17 11:00:00 12.7 8 Oeste 21 Sudoeste 0 -- -- 74
2020-06-17 10:00:00 11.8 12 Sudoeste 17 Sudoeste 0 -- -- 84
2020-06-17 09:00:00 10.8 9 Oeste 15 Oeste 0 -- -- 86
2020-06-17 08:00:00 9.7 8 Oeste 13 Oeste 0 -- -- 96
2020-06-17 07:00:00 8.7 3 Sudoeste 5 Este 0 -- -- 97
2020-06-17 06:00:00 8.4 4 Nordeste 5 Nordeste 0 -- -- 97
2020-06-17 05:00:00 9.2 0 Calma 4 Oeste 0 -- -- 93
2020-06-17 04:00:00 9.6 2 Sudoeste 5 Oeste 0 -- -- 95
2020-06-17 03:00:00 9.3 2 Sudeste 4 Sudeste 0 -- -- 95
2020-06-17 02:00:00 9.1 0 Calma 3 Nordeste 0 -- -- 95
2020-06-17 01:00:00 9.9 0 Calma 6 Sudeste 0 -- -- 91
2020-06-17 00:00:00 10.7 0 Calma 9 Sudeste 0 -- -- 90
2020-06-16 23:00:00 10.9 5 Este 15 Nordeste 0.2 -- -- 89
2020-06-16 22:00:00 11 8 Nordeste 25 Este 0.2 -- -- 89
2020-06-16 21:00:00 12.7 15 Nordeste 28 Este 0.4 -- -- 82
2020-06-16 20:00:00 14.5 12 Nordeste 21 Nordeste 0 -- -- 78
2020-06-16 19:00:00 16.8 10 Norte 24 Noroeste 0 -- -- 59
2020-06-16 18:00:00 17.4 11 Noroeste 27 Noroeste 0 -- -- 61
2020-06-16 17:00:00 17 12 Norte 32 Norte 0 -- -- 61
2020-06-16 16:00:00 16.8 6 Norte 32 Noroeste 0 -- -- 62
2020-06-16 15:00:00 17.3 22 Oeste 34 Sudoeste 0 -- -- 59
2020-06-16 14:00:00 16.5 17 Oeste 32 Sudoeste 0 -- -- 63
2020-06-16 13:00:00 14.7 21 Oeste 33 Oeste 0 -- -- 71
2020-06-16 12:00:00 14.4 19 Oeste 31 Oeste 0 -- -- 70
2020-06-16 11:00:00 14.1 15 Oeste 24 Oeste 0 -- -- 71
2020-06-16 10:00:00 12.3 3 Este 11 Sudoeste 0 -- -- 84
2020-06-16 09:00:00 10.3 2 Oeste 6 Oeste 0 -- -- 92
2020-06-16 08:00:00 9 0 Calma 7 Norte 0 -- -- 95
2020-06-16 07:00:00 8.3 0 Calma 6 Noroeste 0 -- -- 96
2020-06-16 06:00:00 7.8 5 Norte 12 Norte 0 -- -- 96
2020-06-16 05:00:00 6.9 0 Calma 5 Noroeste 0 -- -- 95
2020-06-16 04:00:00 7.9 4 Norte 9 Norte 0 -- -- 93
2020-06-16 03:00:00 8.4 0 Calma 5 Norte 0 -- -- 91
2020-06-16 02:00:00 9.6 3 Norte 10 Nordeste 0 -- -- 88
2020-06-16 01:00:00 10.5 5 Nordeste 12 Nordeste 0 -- -- 85
2020-06-16 00:00:00 12.2 7 Este 15 Nordeste 0 -- -- 81
2020-06-15 23:00:00 13.8 7 Este 14 Este 0 -- -- 72
2020-06-15 22:00:00 15.2 8 Oeste 19 Oeste 0 -- -- 62
2020-06-15 21:00:00 16.1 13 Oeste 24 Oeste 0 -- -- 59
2020-06-15 20:00:00 17.2 15 Oeste 32 Oeste 0 -- -- 55
2020-06-15 19:00:00 18.4 14 Oeste 28 Sudoeste 0 -- -- 51
2020-06-15 18:00:00 18.5 21 Oeste 30 Oeste 0 -- -- 52
2020-06-15 17:00:00 18.6 19 Sudoeste 35 Sudoeste 0 -- -- 53
2020-06-15 16:00:00 18.8 16 Sudoeste 31 Sudoeste 0 -- -- 51
2020-06-15 15:00:00 18.5 15 Sudoeste 32 Sudoeste 0 -- -- 53
2020-06-15 14:00:00 17.7 12 Oeste 37 Sudoeste 0 -- -- 57
2020-06-15 13:00:00 16.3 10 Oeste 23 Sudoeste 0 -- -- 56
2020-06-15 12:00:00 15.6 15 Oeste 26 Sudoeste 0 -- -- 62
2020-06-15 11:00:00 13.7 9 Sudoeste 22 Oeste 0 -- -- 67
2020-06-15 10:00:00 11.8 11 Oeste 15 Oeste 0 -- -- 76
2020-06-15 09:00:00 8.9 3 Noroeste 6 Este 0 -- -- 90
2020-06-15 08:00:00 6.3 4 Nordeste 8 Nordeste 0 -- -- 97
2020-06-15 07:00:00 5.2 2 Nordeste 13 Norte 0 -- -- 93
2020-06-15 06:00:00 5.9 4 Norte 8 Noroeste 0 -- -- 92
2020-06-15 05:00:00 6.5 4 Nordeste 6 Oeste 0 -- -- 91
2020-06-15 04:00:00 8.5 2 Noroeste 10 Oeste 0 -- -- 86
2020-06-15 03:00:00 10.7 0 Calma 7 Oeste 0 -- -- 80
2020-06-15 02:00:00 12.1 6 Oeste 10 Oeste 0 -- -- 74
2020-06-15 01:00:00 12.7 3 Noroeste 13 Sudoeste 0 -- -- 71
2020-06-15 00:00:00 13.3 5 Noroeste 20 Sudoeste 0 -- -- 67
2020-06-14 23:00:00 13.9 13 Oeste 21 Oeste 0 -- -- 62
2020-06-14 22:00:00 14.2 8 Oeste 20 Oeste 0 -- -- 62
2020-06-14 21:00:00 15.4 14 Oeste 28 Sudoeste 0 -- -- 58
2020-06-14 20:00:00 16.7 17 Oeste 30 Oeste 0 -- -- 53
2020-06-14 19:00:00 17.3 21 Oeste 34 Sudoeste 0 -- -- 50
2020-06-14 18:00:00 18.1 23 Oeste 36 Oeste 0 -- -- 48
2020-06-14 17:00:00 17.1 20 Oeste 36 Oeste 0 -- -- 52
2020-06-14 16:00:00 16.5 19 Oeste 33 Oeste 0 -- -- 55
2020-06-14 15:00:00 16 20 Oeste 38 Oeste 0 -- -- 57
2020-06-14 14:00:00 15.7 21 Oeste 34 Sudoeste 0 -- -- 61
2020-06-14 13:00:00 14.7 18 Oeste 31 Sudoeste 0 -- -- 61
2020-06-14 12:00:00 13.3 21 Oeste 33 Oeste 0 -- -- 61
2020-06-14 11:00:00 13 23 Oeste 32 Oeste 0 -- -- 65
2020-06-14 10:00:00 10.7 15 Oeste 23 Oeste 0 -- -- 78
2020-06-14 09:00:00 7.2 2 Norte 10 Noroeste 0 -- -- 93
2020-06-14 08:00:00 4.2 2 Norte 9 Norte 0 -- -- 97
2020-06-14 07:00:00 2.7 4 Norte 8 Norte 0 -- -- 96
2020-06-14 06:00:00 2.8 3 Sudeste 9 Norte 0 -- -- 96
2020-06-14 05:00:00 3.6 5 Nordeste 10 Noroeste 0 -- -- 95
2020-06-14 04:00:00 3.7 0 Calma 5 Nordeste 0 -- -- 95
2020-06-14 03:00:00 4.5 3 Nordeste 6 Este 0 -- -- 95
2020-06-14 02:00:00 5.3 0 Calma 5 Noroeste 0 -- -- 93
2020-06-14 01:00:00 6.4 0 Calma 4 Norte 0 -- -- 92
2020-06-14 00:00:00 7.4 2 Norte 6 Nordeste 0 -- -- 90
2020-06-13 23:00:00 9.3 0 Calma 8 Oeste 0 -- -- 85
2020-06-13 22:00:00 12.3 4 Sudoeste 17 Oeste 0 -- -- 75
2020-06-13 21:00:00 13.8 12 Oeste 33 Oeste 0 -- -- 69
2020-06-13 20:00:00 15 24 Oeste 39 Sudoeste 0 -- -- 64
2020-06-13 19:00:00 16.1 23 Sudoeste 43 Sudoeste 0 -- -- 57
2020-06-13 18:00:00 14.8 24 Sudoeste 38 Oeste 0 -- -- 61
2020-06-13 17:00:00 16 26 Sudoeste 39 Sudoeste 0 -- -- 58
2020-06-13 16:00:00 15.5 19 Sudoeste 36 Sudoeste 0 -- -- 60
2020-06-13 15:00:00 15.1 21 Sudoeste 36 Sudoeste 0 -- -- 63
2020-06-13 14:00:00 15.2 26 Oeste 39 Oeste 0 -- -- 59
2020-06-13 13:00:00 13.4 21 Oeste 35 Oeste 0 -- -- 65
2020-06-13 12:00:00 11.4 23 Oeste 40 Oeste 0 -- -- 72
2020-06-13 11:00:00 11.6 23 Oeste 36 Oeste 0 -- -- 71
2020-06-13 10:00:00 10.6 17 Oeste 30 Oeste 0 -- -- 77
2020-06-13 09:00:00 9.5 21 Oeste 40 Oeste 0 -- -- 80
2020-06-13 08:00:00 8.5 24 Oeste 43 Oeste 0 -- -- 84
2020-06-13 07:00:00 7.4 19 Oeste 29 Oeste 0 -- -- 89
2020-06-13 06:00:00 7 10 Noroeste 35 Oeste 0 -- -- 90
2020-06-13 05:00:00 7.7 23 Oeste 35 Oeste 0 -- -- 89
2020-06-13 04:00:00 8.1 9 Oeste 17 Oeste 0 -- -- 90
2020-06-13 03:00:00 8.5 6 Sur 13 Sudoeste 0 -- -- 91
2020-06-13 02:00:00 8.4 8 Sudoeste 16 Sudoeste 0 -- -- 88
2020-06-13 01:00:00 8.8 7 Sudoeste 17 Sudoeste 0 -- -- 89
2020-06-13 00:00:00 8.7 12 Sudoeste 17 Sudoeste 0 -- -- 89
2020-06-12 23:00:00 9.2 12 Sudoeste 19 Sudoeste 0 -- -- 86
2020-06-12 22:00:00 10.5 9 Sudoeste 18 Sudoeste 0 -- -- 84
2020-06-12 21:00:00 11.8 15 Oeste 30 Sudoeste 0 -- -- 76
2020-06-12 20:00:00 12.5 17 Sudoeste 41 Oeste 0.2 -- -- 78
2020-06-12 19:00:00 13.1 25 Oeste 41 Oeste 0 -- -- 63
2020-06-12 18:00:00 11.7 19 Oeste 42 Sudoeste 0.2 -- -- 77
2020-06-12 17:00:00 12.9 24 Oeste 41 Sudoeste 0 -- -- 73
2020-06-12 16:00:00 10.6 13 Oeste 37 Oeste 0.8 -- -- 88
2020-06-12 15:00:00 10.5 13 Oeste 46 Oeste 0.4 -- -- 82
2020-06-12 14:00:00 11.8 22 Oeste 39 Oeste 0 -- -- 64
2020-06-12 13:00:00 12.7 27 Sudoeste 50 Oeste 0 -- -- 57
2020-06-12 12:00:00 12.2 30 Oeste 46 Oeste 0 -- -- 56
2020-06-12 11:00:00 10.3 32 Oeste 48 Sudoeste 0 -- -- 65
2020-06-12 10:00:00 10.2 31 Oeste 48 Oeste 0 -- -- 66
2020-06-12 09:00:00 8.6 26 Oeste 45 Sudoeste 0 -- -- 79
2020-06-12 08:00:00 7.7 26 Sudoeste 45 Sudoeste 0 -- -- 88
2020-06-12 07:00:00 7.3 28 Sudoeste 51 Sudoeste 0 -- -- 90
2020-06-12 06:00:00 6.9 30 Sudoeste 55 Oeste 0 -- -- 91
2020-06-12 05:00:00 6.7 32 Sudoeste 53 Sudoeste 0 -- -- 88
2020-06-12 04:00:00 6.7 36 Sudoeste 60 Sudoeste 0 -- -- 86
2020-06-12 03:00:00 7.1 25 Sudoeste 39 Sudoeste 0 -- -- 80
2020-06-12 02:00:00 7.6 19 Sur 31 Sur 0 -- -- 77
2020-06-12 01:00:00 7.8 16 Oeste 27 Oeste 0 -- -- 74
2020-06-12 00:00:00 7 17 Oeste 29 Sudoeste 0 -- -- 76
2020-06-11 23:00:00 7.7 16 Oeste 30 Oeste 0 -- -- 70
2020-06-11 22:00:00 9.4 14 Oeste 46 Oeste 0 -- -- 63
2020-06-11 21:00:00 11.7 34 Oeste 56 Oeste 0 -- -- 55
2020-06-11 20:00:00 13.4 41 Oeste 61 Oeste 0 -- -- 50
2020-06-11 19:00:00 15.2 37 Oeste 66 Oeste 0 -- -- 46
2020-06-11 18:00:00 15.6 30 Oeste 58 Oeste 0 -- -- 46
2020-06-11 17:00:00 15.8 37 Oeste 56 Oeste 0 -- -- 50
2020-06-11 16:00:00 16.9 29 Noroeste 55 Oeste 0 -- -- 57
2020-06-11 15:00:00 18.5 36 Oeste 62 Sudoeste 0 -- -- 46
2020-06-11 14:00:00 18 36 Sudoeste 55 Oeste 0 -- -- 47
2020-06-11 13:00:00 17 28 Oeste 45 Sudoeste 0 -- -- 57
2020-06-11 12:00:00 16.2 28 Oeste 46 Oeste 0 -- -- 64
2020-06-11 11:00:00 14.5 28 Oeste 39 Oeste 0 -- -- 69
2020-06-11 10:00:00 13.1 20 Oeste 30 Oeste 0 -- -- 73
2020-06-11 09:00:00 11.5 14 Oeste 22 Oeste 0 -- -- 78
2020-06-11 08:00:00 10.1 9 Sur 13 Sur 0 -- -- 92
2020-06-11 07:00:00 9.3 3 Sudoeste 5 Sudoeste 0 -- -- 95
2020-06-11 06:00:00 8.5 0 Calma 4 Nordeste 0 -- -- 95
2020-06-11 05:00:00 8.3 0 Calma 6 Nordeste 0 -- -- 94
2020-06-11 04:00:00 8.3 3 Norte 5 Norte 0 -- -- 93
2020-06-11 03:00:00 8.8 0 Calma 6 Noroeste 0 -- -- 93
2020-06-11 02:00:00 8.8 0 Calma 9 Nordeste 0 -- -- 90
2020-06-11 01:00:00 9.7 5 Norte 9 Nordeste 0 -- -- 89
2020-06-11 00:00:00 10.5 4 Norte 13 Noroeste 0 -- -- 86
2020-06-10 23:00:00 11.5 5 Norte 20 Este 0 -- -- 83
2020-06-10 22:00:00 12.8 11 Nordeste 28 Nordeste 0 -- -- 79
2020-06-10 21:00:00 14.4 17 Nordeste 27 Nordeste 0 -- -- 73
2020-06-10 20:00:00 17.4 0 Calma 12 Oeste 0 -- -- 48
2020-06-10 19:00:00 17.5 10 Oeste 21 Noroeste 0 -- -- 49
2020-06-10 18:00:00 18.4 12 Sudoeste 22 Oeste 0 -- -- 49
2020-06-10 17:00:00 18 10 Sudoeste 20 Oeste 0 -- -- 52
2020-06-10 16:00:00 18.4 8 Sudoeste 20 Sur 0 -- -- 53
2020-06-10 15:00:00 17.7 9 Sur 19 Sur 0 -- -- 57
2020-06-10 14:00:00 16.9 9 Sur 17 Oeste 0 -- -- 59
2020-06-10 13:00:00 15.4 6 Norte 17 Oeste 0 -- -- 60
2020-06-10 12:00:00 14 4 Sudoeste 12 Sudoeste 0 -- -- 60
2020-06-10 11:00:00 11.8 5 Oeste 10 Oeste 0 -- -- 76
2020-06-10 10:00:00 8.9 3 Noroeste 7 Oeste 0 -- -- 87
2020-06-10 09:00:00 6.1 3 Norte 9 Noroeste 0 -- -- 96
2020-06-10 08:00:00 4 6 Norte 11 Norte 0 -- -- 96
2020-06-10 07:00:00 3.4 6 Norte 12 Noroeste 0 -- -- 96
2020-06-10 06:00:00 3.9 6 Norte 11 Norte 0 -- -- 95
2020-06-10 05:00:00 4.8 4 Norte 9 Norte 0 -- -- 93
2020-06-10 04:00:00 5.8 0 Calma 10 Nordeste 0 -- -- 91
2020-06-10 03:00:00 6.4 0 Calma 9 Este 0 -- -- 90
2020-06-10 02:00:00 6.9 3 Norte 16 Nordeste 0 -- -- 89
2020-06-10 01:00:00 7.6 13 Nordeste 30 Este 0 -- -- 88
2020-06-10 00:00:00 8.2 17 Nordeste 27 Nordeste 0 -- -- 87